sensor_id;sensor_type;location;lat;lon;timestamp;temperature;humidity
38902;DHT22;24661;53.566;9.910;2023-04-03T00:00:14;1.30;99.90
38902;DHT22;24661;53.566;9.910;2023-04-03T00:02:40;1.30;99.90
38902;DHT22;24661;53.566;9.910;2023-04-03T00:05:06;1.30;99.90
38902;DHT22;24661;53.566;9.910;2023-04-03T00:07:32;1.30;99.90
38902;DHT22;24661;53.566;9.910;2023-04-03T00:09:58;1.20;99.90
38902;DHT22;24661;53.566;9.910;2023-04-03T00:12:23;1.20;99.90
38902;DHT22;24661;53.566;9.910;2023-04-03T00:14:50;1.80;99.90
38902;DHT22;24661;53.566;9.910;2023-04-03T00:17:16;1.00;99.90
38902;DHT22;24661;53.566;9.910;2023-04-03T00:19:43;1.00;99.90
38902;DHT22;24661;53.566;9.910;2023-04-03T00:22:08;1.00;99.90
38902;DHT22;24661;53.566;9.910;2023-04-03T00:24:34;1.00;99.90
38902;DHT22;24661;53.566;9.910;2023-04-03T00:27:00;1.00;99.90
38902;DHT22;24661;53.566;9.910;2023-04-03T00:29:25;1.10;99.90
38902;DHT22;24661;53.566;9.910;2023-04-03T00:31:51;1.00;99.90
38902;DHT22;24661;53.566;9.910;2023-04-03T00:34:16;1.00;99.90
38902;DHT22;24661;53.566;9.910;2023-04-03T00:36:42;1.00;99.90
38902;DHT22;24661;53.566;9.910;2023-04-03T00:39:08;1.00;99.90
38902;DHT22;24661;53.566;9.910;2023-04-03T00:41:33;1.00;99.90
38902;DHT22;24661;53.566;9.910;2023-04-03T00:43:59;1.00;99.90
38902;DHT22;24661;53.566;9.910;2023-04-03T00:46:25;0.90;99.90
38902;DHT22;24661;53.566;9.910;2023-04-03T00:48:50;0.90;99.90
38902;DHT22;24661;53.566;9.910;2023-04-03T00:51:23;0.90;99.90
38902;DHT22;24661;53.566;9.910;2023-04-03T00:53:54;0.90;99.90
38902;DHT22;24661;53.566;9.910;2023-04-03T00:56:22;0.80;99.90
38902;DHT22;24661;53.566;9.910;2023-04-03T00:58:56;0.70;99.90
38902;DHT22;24661;53.566;9.910;2023-04-03T01:01:26;0.70;99.90
38902;DHT22;24661;53.566;9.910;2023-04-03T01:03:52;0.70;99.90
38902;DHT22;24661;53.566;9.910;2023-04-03T01:06:23;0.70;99.90
38902;DHT22;24661;53.566;9.910;2023-04-03T01:08:50;0.70;99.90
38902;DHT22;24661;53.566;9.910;2023-04-03T01:11:16;0.70;99.90
38902;DHT22;24661;53.566;9.910;2023-04-03T01:13:42;0.70;99.90
38902;DHT22;24661;53.566;9.910;2023-04-03T01:16:08;0.70;99.90
38902;DHT22;24661;53.566;9.910;2023-04-03T01:18:36;0.60;99.90
38902;DHT22;24661;53.566;9.910;2023-04-03T01:21:14;0.60;99.90
38902;DHT22;24661;53.566;9.910;2023-04-03T01:26:31;0.60;99.90
38902;DHT22;24661;53.566;9.910;2023-04-03T01:28:59;0.60;99.90
38902;DHT22;24661;53.566;9.910;2023-04-03T01:33:55;0.50;99.90
38902;DHT22;24661;53.566;9.910;2023-04-03T01:36:23;0.50;99.90
38902;DHT22;24661;53.566;9.910;2023-04-03T01:38:50;0.50;99.90
38902;DHT22;24661;53.566;9.910;2023-04-03T01:41:16;0.50;99.90
38902;DHT22;24661;53.566;9.910;2023-04-03T01:43:42;0.40;99.90
38902;DHT22;24661;53.566;9.910;2023-04-03T01:46:08;0.40;99.90
38902;DHT22;24661;53.566;9.910;2023-04-03T01:48:34;0.40;99.90
38902;DHT22;24661;53.566;9.910;2023-04-03T01:51:00;0.40;99.90
38902;DHT22;24661;53.566;9.910;2023-04-03T01:53:25;2.20;99.90
38902;DHT22;24661;53.566;9.910;2023-04-03T01:55:51;0.30;99.90
38902;DHT22;24661;53.566;9.910;2023-04-03T01:58:17;0.40;99.90
38902;DHT22;24661;53.566;9.910;2023-04-03T02:00:42;0.30;99.90
38902;DHT22;24661;53.566;9.910;2023-04-03T02:03:08;0.30;99.90
38902;DHT22;24661;53.566;9.910;2023-04-03T02:05:34;0.30;99.90
38902;DHT22;24661;53.566;9.910;2023-04-03T02:08:00;0.20;99.90
38902;DHT22;24661;53.566;9.910;2023-04-03T02:10:25;0.20;99.90
38902;DHT22;24661;53.566;9.910;2023-04-03T02:12:51;0.20;99.90
38902;DHT22;24661;53.566;9.910;2023-04-03T02:15:17;0.20;99.90
38902;DHT22;24661;53.566;9.910;2023-04-03T02:17:43;0.20;99.90
38902;DHT22;24661;53.566;9.910;2023-04-03T02:20:09;0.30;99.90
38902;DHT22;24661;53.566;9.910;2023-04-03T02:22:35;0.30;99.90
38902;DHT22;24661;53.566;9.910;2023-04-03T02:25:01;0.30;99.90
38902;DHT22;24661;53.566;9.910;2023-04-03T02:27:27;0.30;99.90
38902;DHT22;24661;53.566;9.910;2023-04-03T02:29:53;0.30;99.90
38902;DHT22;24661;53.566;9.910;2023-04-03T02:32:18;0.30;99.90
38902;DHT22;24661;53.566;9.910;2023-04-03T02:34:44;0.30;99.90
38902;DHT22;24661;53.566;9.910;2023-04-03T02:37:10;0.30;99.90
38902;DHT22;24661;53.566;9.910;2023-04-03T02:39:36;0.30;99.90
38902;DHT22;24661;53.566;9.910;2023-04-03T02:42:02;0.30;99.90
38902;DHT22;24661;53.566;9.910;2023-04-03T02:44:27;0.30;99.90
38902;DHT22;24661;53.566;9.910;2023-04-03T02:46:53;0.20;99.90
38902;DHT22;24661;53.566;9.910;2023-04-03T02:49:19;0.20;99.90
38902;DHT22;24661;53.566;9.910;2023-04-03T02:51:45;0.20;99.90
38902;DHT22;24661;53.566;9.910;2023-04-03T02:54:11;0.20;99.90
38902;DHT22;24661;53.566;9.910;2023-04-03T02:56:37;0.30;99.90
38902;DHT22;24661;53.566;9.910;2023-04-03T02:59:03;0.20;99.90
38902;DHT22;24661;53.566;9.910;2023-04-03T03:01:28;0.20;99.90
38902;DHT22;24661;53.566;9.910;2023-04-03T03:03:57;0.20;99.90
38902;DHT22;24661;53.566;9.910;2023-04-03T03:06:23;0.20;99.90
38902;DHT22;24661;53.566;9.910;2023-04-03T03:08:49;0.10;99.90
38902;DHT22;24661;53.566;9.910;2023-04-03T03:11:14;0.10;99.90
38902;DHT22;24661;53.566;9.910;2023-04-03T03:13:40;0.10;99.90
38902;DHT22;24661;53.566;9.910;2023-04-03T03:16:06;0.00;99.90
38902;DHT22;24661;53.566;9.910;2023-04-03T03:18:32;0.00;99.90
38902;DHT22;24661;53.566;9.910;2023-04-03T03:21:00;-0.10;99.90
38902;DHT22;24661;53.566;9.910;2023-04-03T03:23:28;-0.10;99.90
38902;DHT22;24661;53.566;9.910;2023-04-03T03:25:59;-0.10;99.90
38902;DHT22;24661;53.566;9.910;2023-04-03T03:28:25;-0.10;99.90
38902;DHT22;24661;53.566;9.910;2023-04-03T03:30:51;-0.20;99.90
38902;DHT22;24661;53.566;9.910;2023-04-03T03:33:17;-0.10;99.90
38902;DHT22;24661;53.566;9.910;2023-04-03T03:35:44;0.00;99.90
38902;DHT22;24661;53.566;9.910;2023-04-03T03:38:10;-0.10;99.90
38902;DHT22;24661;53.566;9.910;2023-04-03T03:40:36;0.00;99.90
38902;DHT22;24661;53.566;9.910;2023-04-03T03:43:02;-0.10;99.90
38902;DHT22;24661;53.566;9.910;2023-04-03T03:45:28;-0.10;99.90
38902;DHT22;24661;53.566;9.910;2023-04-03T03:47:54;-0.10;99.90
38902;DHT22;24661;53.566;9.910;2023-04-03T03:50:19;-0.10;99.90
38902;DHT22;24661;53.566;9.910;2023-04-03T03:52:45;0.00;99.90
38902;DHT22;24661;53.566;9.910;2023-04-03T03:55:11;0.00;99.90
38902;DHT22;24661;53.566;9.910;2023-04-03T03:57:37;-0.10;99.90
38902;DHT22;24661;53.566;9.910;2023-04-03T04:00:04;-0.10;99.90
38902;DHT22;24661;53.566;9.910;2023-04-03T04:02:30;-0.10;99.90
38902;DHT22;24661;53.566;9.910;2023-04-03T04:04:56;-0.10;99.90
38902;DHT22;24661;53.566;9.910;2023-04-03T04:07:23;-0.10;99.90
38902;DHT22;24661;53.566;9.910;2023-04-03T04:09:49;-0.10;99.90
38902;DHT22;24661;53.566;9.910;2023-04-03T04:12:14;-0.10;99.90
38902;DHT22;24661;53.566;9.910;2023-04-03T04:14:41;-0.10;99.90
38902;DHT22;24661;53.566;9.910;2023-04-03T04:17:07;-0.20;99.90
38902;DHT22;24661;53.566;9.910;2023-04-03T04:19:32;-0.20;99.90
38902;DHT22;24661;53.566;9.910;2023-04-03T04:21:58;-0.20;99.90
38902;DHT22;24661;53.566;9.910;2023-04-03T04:24:24;-0.20;99.90
38902;DHT22;24661;53.566;9.910;2023-04-03T04:26:49;-0.20;99.90
38902;DHT22;24661;53.566;9.910;2023-04-03T04:29:15;-0.30;99.90
38902;DHT22;24661;53.566;9.910;2023-04-03T04:31:41;-0.20;99.90
38902;DHT22;24661;53.566;9.910;2023-04-03T04:34:07;-0.20;99.90
38902;DHT22;24661;53.566;9.910;2023-04-03T04:36:32;-0.30;99.90
38902;DHT22;24661;53.566;9.910;2023-04-03T04:38:58;-0.30;99.90
38902;DHT22;24661;53.566;9.910;2023-04-03T04:41:24;-0.20;99.90
38902;DHT22;24661;53.566;9.910;2023-04-03T04:43:50;-0.30;99.90
38902;DHT22;24661;53.566;9.910;2023-04-03T04:46:16;-0.20;99.90
38902;DHT22;24661;53.566;9.910;2023-04-03T04:48:43;-0.20;99.90
38902;DHT22;24661;53.566;9.910;2023-04-03T04:51:09;-0.30;99.90
38902;DHT22;24661;53.566;9.910;2023-04-03T04:53:34;-0.20;99.90
38902;DHT22;24661;53.566;9.910;2023-04-03T04:56:00;-0.20;99.90
38902;DHT22;24661;53.566;9.910;2023-04-03T04:58:26;-0.20;99.90
38902;DHT22;24661;53.566;9.910;2023-04-03T05:01:02;-0.20;99.90
38902;DHT22;24661;53.566;9.910;2023-04-03T05:03:29;-0.20;99.90
38902;DHT22;24661;53.566;9.910;2023-04-03T05:05:55;-0.10;99.90
38902;DHT22;24661;53.566;9.910;2023-04-03T05:08:21;-0.10;99.90
38902;DHT22;24661;53.566;9.910;2023-04-03T05:10:46;-0.10;99.90
38902;DHT22;24661;53.566;9.910;2023-04-03T05:13:14;0.00;99.90
38902;DHT22;24661;53.566;9.910;2023-04-03T05:15:40;-0.10;99.90
38902;DHT22;24661;53.566;9.910;2023-04-03T05:18:06;0.00;99.90
38902;DHT22;24661;53.566;9.910;2023-04-03T05:20:32;0.00;99.90
38902;DHT22;24661;53.566;9.910;2023-04-03T05:22:58;0.10;99.90
38902;DHT22;24661;53.566;9.910;2023-04-03T05:25:24;0.10;99.90
38902;DHT22;24661;53.566;9.910;2023-04-03T05:27:50;0.10;99.90
38902;DHT22;24661;53.566;9.910;2023-04-03T05:30:17;0.20;99.90
38902;DHT22;24661;53.566;9.910;2023-04-03T05:32:43;0.10;99.90
38902;DHT22;24661;53.566;9.910;2023-04-03T05:35:09;0.20;99.90
38902;DHT22;24661;53.566;9.910;2023-04-03T05:37:35;0.30;99.90
38902;DHT22;24661;53.566;9.910;2023-04-03T05:40:01;0.30;99.90
38902;DHT22;24661;53.566;9.910;2023-04-03T05:42:27;0.30;99.90
38902;DHT22;24661;53.566;9.910;2023-04-03T05:44:52;0.40;99.90
38902;DHT22;24661;53.566;9.910;2023-04-03T05:47:18;0.40;99.90
38902;DHT22;24661;53.566;9.910;2023-04-03T05:49:44;0.50;99.90
38902;DHT22;24661;53.566;9.910;2023-04-03T05:52:19;0.50;99.90
38902;DHT22;24661;53.566;9.910;2023-04-03T05:54:45;0.50;99.90
38902;DHT22;24661;53.566;9.910;2023-04-03T05:57:14;0.60;99.90
38902;DHT22;24661;53.566;9.910;2023-04-03T05:59:42;0.60;99.90
38902;DHT22;24661;53.566;9.910;2023-04-03T06:02:11;0.60;99.90
38902;DHT22;24661;53.566;9.910;2023-04-03T06:04:38;0.70;99.90
38902;DHT22;24661;53.566;9.910;2023-04-03T06:07:04;0.70;99.90
38902;DHT22;24661;53.566;9.910;2023-04-03T06:09:30;0.80;99.90
38902;DHT22;24661;53.566;9.910;2023-04-03T06:11:56;0.90;99.90
38902;DHT22;24661;53.566;9.910;2023-04-03T06:14:25;0.90;99.90
38902;DHT22;24661;53.566;9.910;2023-04-03T06:16:51;1.00;99.90
38902;DHT22;24661;53.566;9.910;2023-04-03T06:19:17;1.10;99.90
38902;DHT22;24661;53.566;9.910;2023-04-03T06:21:43;1.10;99.90
38902;DHT22;24661;53.566;9.910;2023-04-03T06:24:14;1.20;99.90
38902;DHT22;24661;53.566;9.910;2023-04-03T06:26:40;1.30;99.90
38902;DHT22;24661;53.566;9.910;2023-04-03T06:29:06;1.40;99.90
38902;DHT22;24661;53.566;9.910;2023-04-03T06:31:31;1.60;99.90
38902;DHT22;24661;53.566;9.910;2023-04-03T06:33:57;1.60;99.90
38902;DHT22;24661;53.566;9.910;2023-04-03T06:36:23;1.60;99.90
38902;DHT22;24661;53.566;9.910;2023-04-03T06:38:49;1.70;99.90
38902;DHT22;24661;53.566;9.910;2023-04-03T06:41:14;1.80;99.90
38902;DHT22;24661;53.566;9.910;2023-04-03T06:43:42;1.90;99.90
38902;DHT22;24661;53.566;9.910;2023-04-03T06:46:15;2.00;99.90
38902;DHT22;24661;53.566;9.910;2023-04-03T06:48:42;2.20;99.90
38902;DHT22;24661;53.566;9.910;2023-04-03T06:51:24;2.30;99.90
38902;DHT22;24661;53.566;9.910;2023-04-03T06:53:52;2.30;99.90
38902;DHT22;24661;53.566;9.910;2023-04-03T06:56:18;2.40;99.90
38902;DHT22;24661;53.566;9.910;2023-04-03T06:58:45;2.50;99.90
38902;DHT22;24661;53.566;9.910;2023-04-03T07:01:14;2.60;99.90
38902;DHT22;24661;53.566;9.910;2023-04-03T07:03:40;2.00;99.90
38902;DHT22;24661;53.566;9.910;2023-04-03T07:06:07;2.80;99.90
38902;DHT22;24661;53.566;9.910;2023-04-03T07:08:35;3.00;99.90
38902;DHT22;24661;53.566;9.910;2023-04-03T07:11:01;3.10;99.90
38902;DHT22;24661;53.566;9.910;2023-04-03T07:13:26;3.20;99.90
38902;DHT22;24661;53.566;9.910;2023-04-03T07:15:52;3.30;99.90
38902;DHT22;24661;53.566;9.910;2023-04-03T07:18:18;3.50;99.90
38902;DHT22;24661;53.566;9.910;2023-04-03T07:20:44;3.60;99.90
38902;DHT22;24661;53.566;9.910;2023-04-03T07:23:10;3.70;99.90
38902;DHT22;24661;53.566;9.910;2023-04-03T07:25:41;3.80;99.90
38902;DHT22;24661;53.566;9.910;2023-04-03T07:28:07;3.90;99.90
38902;DHT22;24661;53.566;9.910;2023-04-03T07:30:33;4.00;99.90
38902;DHT22;24661;53.566;9.910;2023-04-03T07:32:59;4.10;99.90
38902;DHT22;24661;53.566;9.910;2023-04-03T07:35:25;4.20;99.90
38902;DHT22;24661;53.566;9.910;2023-04-03T07:37:51;4.40;99.90
38902;DHT22;24661;53.566;9.910;2023-04-03T07:40:16;4.50;99.90
38902;DHT22;24661;53.566;9.910;2023-04-03T07:42:42;4.60;99.90
38902;DHT22;24661;53.566;9.910;2023-04-03T07:45:08;4.80;99.90
38902;DHT22;24661;53.566;9.910;2023-04-03T07:47:33;4.80;99.90
38902;DHT22;24661;53.566;9.910;2023-04-03T07:49:59;4.90;99.90
38902;DHT22;24661;53.566;9.910;2023-04-03T07:52:25;5.00;99.90
38902;DHT22;24661;53.566;9.910;2023-04-03T07:54:51;5.10;99.90
38902;DHT22;24661;53.566;9.910;2023-04-03T07:57:16;5.10;99.90
38902;DHT22;24661;53.566;9.910;2023-04-03T07:59:42;5.10;99.90
38902;DHT22;24661;53.566;9.910;2023-04-03T08:02:12;5.20;99.90
38902;DHT22;24661;53.566;9.910;2023-04-03T08:04:38;5.30;99.90
38902;DHT22;24661;53.566;9.910;2023-04-03T08:07:04;5.40;99.90
38902;DHT22;24661;53.566;9.910;2023-04-03T08:09:30;5.40;99.90
38902;DHT22;24661;53.566;9.910;2023-04-03T08:11:57;5.50;99.90
38902;DHT22;24661;53.566;9.910;2023-04-03T08:14:23;5.70;99.90
38902;DHT22;24661;53.566;9.910;2023-04-03T08:16:49;5.70;99.90
38902;DHT22;24661;53.566;9.910;2023-04-03T08:19:16;5.80;99.90
38902;DHT22;24661;53.566;9.910;2023-04-03T08:21:43;5.90;99.90
38902;DHT22;24661;53.566;9.910;2023-04-03T08:24:09;6.10;99.90
38902;DHT22;24661;53.566;9.910;2023-04-03T08:26:35;6.30;99.90
38902;DHT22;24661;53.566;9.910;2023-04-03T08:29:01;6.10;99.90
38902;DHT22;24661;53.566;9.910;2023-04-03T08:31:27;6.00;99.90
38902;DHT22;24661;53.566;9.910;2023-04-03T08:33:54;6.10;99.90
38902;DHT22;24661;53.566;9.910;2023-04-03T08:36:22;6.10;99.90
38902;DHT22;24661;53.566;9.910;2023-04-03T08:38:49;6.00;99.90
38902;DHT22;24661;53.566;9.910;2023-04-03T08:41:35;6.10;99.90
38902;DHT22;24661;53.566;9.910;2023-04-03T08:44:24;6.20;99.90
38902;DHT22;24661;53.566;9.910;2023-04-03T08:49:52;6.30;99.90
38902;DHT22;24661;53.566;9.910;2023-04-03T08:57:40;6.40;99.90
38902;DHT22;24661;53.566;9.910;2023-04-03T09:00:20;6.40;99.90
38902;DHT22;24661;53.566;9.910;2023-04-03T09:02:47;6.40;99.90
38902;DHT22;24661;53.566;9.910;2023-04-03T09:08:28;6.60;99.90
38902;DHT22;24661;53.566;9.910;2023-04-03T09:11:21;6.60;99.90
38902;DHT22;24661;53.566;9.910;2023-04-03T09:16:43;6.70;99.90
38902;DHT22;24661;53.566;9.910;2023-04-03T09:22:02;6.80;99.90
38902;DHT22;24661;53.566;9.910;2023-04-03T09:24:28;6.90;99.90
38902;DHT22;24661;53.566;9.910;2023-04-03T09:27:06;6.80;99.90
38902;DHT22;24661;53.566;9.910;2023-04-03T09:29:36;6.10;99.90
38902;DHT22;24661;53.566;9.910;2023-04-03T09:32:25;6.70;99.90
38902;DHT22;24661;53.566;9.910;2023-04-03T09:34:53;6.60;99.90
38902;DHT22;24661;53.566;9.910;2023-04-03T09:37:41;6.80;99.90
38902;DHT22;24661;53.566;9.910;2023-04-03T09:40:41;7.10;99.90
38902;DHT22;24661;53.566;9.910;2023-04-03T09:45:43;7.10;99.90
38902;DHT22;24661;53.566;9.910;2023-04-03T09:50:58;7.40;99.90
38902;DHT22;24661;53.566;9.910;2023-04-03T09:53:35;7.40;99.90
38902;DHT22;24661;53.566;9.910;2023-04-03T09:58:46;7.10;99.90
38902;DHT22;24661;53.566;9.910;2023-04-03T10:02:00;6.90;99.90
38902;DHT22;24661;53.566;9.910;2023-04-03T10:04:38;6.70;99.90
38902;DHT22;24661;53.566;9.910;2023-04-03T10:10:20;6.50;99.90
38902;DHT22;24661;53.566;9.910;2023-04-03T10:12:48;6.40;99.90
38902;DHT22;24661;53.566;9.910;2023-04-03T10:15:16;6.40;99.90
38902;DHT22;24661;53.566;9.910;2023-04-03T10:17:53;6.60;99.90
38902;DHT22;24661;53.566;9.910;2023-04-03T10:20:35;6.70;99.90
38902;DHT22;24661;53.566;9.910;2023-04-03T10:23:15;6.90;99.90
38902;DHT22;24661;53.566;9.910;2023-04-03T10:28:29;7.60;99.90
38902;DHT22;24661;53.566;9.910;2023-04-03T10:33:56;8.10;99.90
38902;DHT22;24661;53.566;9.910;2023-04-03T10:39:28;8.50;99.90
38902;DHT22;24661;53.566;9.910;2023-04-03T10:47:04;9.10;99.90
38902;DHT22;24661;53.566;9.910;2023-04-03T10:55:04;9.30;99.90
38902;DHT22;24661;53.566;9.910;2023-04-03T10:57:32;9.50;99.90
38902;DHT22;24661;53.566;9.910;2023-04-03T11:00:06;9.60;99.90
38902;DHT22;24661;53.566;9.910;2023-04-03T11:02:58;9.50;99.90
38902;DHT22;24661;53.566;9.910;2023-04-03T11:05:34;9.40;99.90
38902;DHT22;24661;53.566;9.910;2023-04-03T11:08:24;9.50;99.90
38902;DHT22;24661;53.566;9.910;2023-04-03T11:10:55;10.50;99.90
38902;DHT22;24661;53.566;9.910;2023-04-03T11:15:53;9.20;99.90
38902;DHT22;24661;53.566;9.910;2023-04-03T11:21:21;9.40;99.90
38902;DHT22;24661;53.566;9.910;2023-04-03T11:23:48;9.70;99.90
38902;DHT22;24661;53.566;9.910;2023-04-03T11:26:21;9.80;99.90
38902;DHT22;24661;53.566;9.910;2023-04-03T11:28:53;9.80;99.90
38902;DHT22;24661;53.566;9.910;2023-04-03T11:36:30;9.40;99.90
38902;DHT22;24661;53.566;9.910;2023-04-03T11:39:02;9.20;99.90
38902;DHT22;24661;53.566;9.910;2023-04-03T11:41:34;9.10;99.90
38902;DHT22;24661;53.566;9.910;2023-04-03T11:46:57;8.80;99.90
38902;DHT22;24661;53.566;9.910;2023-04-03T11:49:55;8.70;99.90
38902;DHT22;24661;53.566;9.910;2023-04-03T11:58:02;9.60;99.90
38902;DHT22;24661;53.566;9.910;2023-04-03T12:32:41;10.70;99.90
38902;DHT22;24661;53.566;9.910;2023-04-03T12:35:31;10.40;99.90
38902;DHT22;24661;53.566;9.910;2023-04-03T12:44:01;9.30;99.90
38902;DHT22;24661;53.566;9.910;2023-04-03T12:46:24;9.20;99.90
38902;DHT22;24661;53.566;9.910;2023-04-03T12:48:57;9.00;99.90
38902;DHT22;24661;53.566;9.910;2023-04-03T12:51:41;8.80;99.90
38902;DHT22;24661;53.566;9.910;2023-04-03T12:54:22;8.60;99.90
38902;DHT22;24661;53.566;9.910;2023-04-03T12:56:48;8.70;99.90
38902;DHT22;24661;53.566;9.910;2023-04-03T12:59:25;8.80;99.90
38902;DHT22;24661;53.566;9.910;2023-04-03T13:02:01;9.00;99.90
38902;DHT22;24661;53.566;9.910;2023-04-03T13:04:29;9.10;99.90
38902;DHT22;24661;53.566;9.910;2023-04-03T13:06:55;9.30;99.90
38902;DHT22;24661;53.566;9.910;2023-04-03T13:09:30;9.40;99.90
38902;DHT22;24661;53.566;9.910;2023-04-03T13:11:59;9.40;99.90
38902;DHT22;24661;53.566;9.910;2023-04-03T13:14:26;9.70;99.90
38902;DHT22;24661;53.566;9.910;2023-04-03T13:17:09;9.90;99.90
38902;DHT22;24661;53.566;9.910;2023-04-03T13:19:37;10.20;99.90
38902;DHT22;24661;53.566;9.910;2023-04-03T13:22:06;10.40;99.90
38902;DHT22;24661;53.566;9.910;2023-04-03T13:24:36;10.50;99.90
38902;DHT22;24661;53.566;9.910;2023-04-03T13:27:03;10.70;99.90
38902;DHT22;24661;53.566;9.910;2023-04-03T13:29:32;11.10;99.90
38902;DHT22;24661;53.566;9.910;2023-04-03T13:32:00;10.90;99.90
38902;DHT22;24661;53.566;9.910;2023-04-03T13:34:29;10.10;99.90
38902;DHT22;24661;53.566;9.910;2023-04-03T13:37:02;12.20;99.90
38902;DHT22;24661;53.566;9.910;2023-04-03T13:39:36;13.40;99.90
38902;DHT22;24661;53.566;9.910;2023-04-03T13:42:17;12.60;99.60
38902;DHT22;24661;53.566;9.910;2023-04-03T13:44:46;14.20;94.10
38902;DHT22;24661;53.566;9.910;2023-04-03T13:47:21;14.10;93.00
38902;DHT22;24661;53.566;9.910;2023-04-03T13:52:32;13.70;93.70
38902;DHT22;24661;53.566;9.910;2023-04-03T13:55:18;13.30;92.20
38902;DHT22;24661;53.566;9.910;2023-04-03T14:00:49;13.70;95.30
38902;DHT22;24661;53.566;9.910;2023-04-03T14:03:46;13.80;95.40
38902;DHT22;24661;53.566;9.910;2023-04-03T14:06:15;13.90;95.40
38902;DHT22;24661;53.566;9.910;2023-04-03T14:08:42;15.20;91.50
38902;DHT22;24661;53.566;9.910;2023-04-03T14:11:16;15.60;92.50
38902;DHT22;24661;53.566;9.910;2023-04-03T14:13:43;15.10;91.80
38902;DHT22;24661;53.566;9.910;2023-04-03T14:16:24;14.50;91.00
38902;DHT22;24661;53.566;9.910;2023-04-03T14:18:53;13.50;92.80
38902;DHT22;24661;53.566;9.910;2023-04-03T14:21:20;12.70;94.40
38902;DHT22;24661;53.566;9.910;2023-04-03T14:23:47;13.20;94.50
38902;DHT22;24661;53.566;9.910;2023-04-03T14:26:15;13.00;91.60
38902;DHT22;24661;53.566;9.910;2023-04-03T14:28:44;13.50;91.90
38902;DHT22;24661;53.566;9.910;2023-04-03T14:31:11;13.00;95.00
38902;DHT22;24661;53.566;9.910;2023-04-03T14:33:37;13.80;94.30
38902;DHT22;24661;53.566;9.910;2023-04-03T14:36:22;14.60;94.00
38902;DHT22;24661;53.566;9.910;2023-04-03T14:38:49;14.40;90.50
38902;DHT22;24661;53.566;9.910;2023-04-03T14:41:19;14.60;92.30
38902;DHT22;24661;53.566;9.910;2023-04-03T14:43:46;13.90;91.60
38902;DHT22;24661;53.566;9.910;2023-04-03T14:46:15;13.20;92.10
38902;DHT22;24661;53.566;9.910;2023-04-03T14:48:41;11.70;91.60
38902;DHT22;24661;53.566;9.910;2023-04-03T14:51:08;12.30;93.50
38902;DHT22;24661;53.566;9.910;2023-04-03T14:53:35;12.50;92.50
38902;DHT22;24661;53.566;9.910;2023-04-03T14:56:01;12.40;91.50
38902;DHT22;24661;53.566;9.910;2023-04-03T14:58:27;12.00;91.80
38902;DHT22;24661;53.566;9.910;2023-04-03T15:00:53;11.70;95.00
38902;DHT22;24661;53.566;9.910;2023-04-03T15:03:21;11.30;93.70
38902;DHT22;24661;53.566;9.910;2023-04-03T15:05:48;10.90;93.40
38902;DHT22;24661;53.566;9.910;2023-04-03T15:08:23;11.30;96.20
38902;DHT22;24661;53.566;9.910;2023-04-03T15:10:51;13.00;95.10
38902;DHT22;24661;53.566;9.910;2023-04-03T15:13:23;13.70;93.50
38902;DHT22;24661;53.566;9.910;2023-04-03T15:15:49;13.30;91.20
38902;DHT22;24661;53.566;9.910;2023-04-03T15:18:25;12.00;92.80
38902;DHT22;24661;53.566;9.910;2023-04-03T15:20:52;11.20;94.60
38902;DHT22;24661;53.566;9.910;2023-04-03T15:23:18;9.90;95.10
38902;DHT22;24661;53.566;9.910;2023-04-03T15:25:46;12.00;95.10
38902;DHT22;24661;53.566;9.910;2023-04-03T15:28:39;12.60;92.50
38902;DHT22;24661;53.566;9.910;2023-04-03T15:31:06;12.40;94.80
38902;DHT22;24661;53.566;9.910;2023-04-03T15:33:35;12.40;95.30
38902;DHT22;24661;53.566;9.910;2023-04-03T15:36:02;12.30;94.50
38902;DHT22;24661;53.566;9.910;2023-04-03T15:38:28;12.20;95.20
38902;DHT22;24661;53.566;9.910;2023-04-03T15:40:55;11.70;94.70
38902;DHT22;24661;53.566;9.910;2023-04-03T15:43:20;11.70;95.60
38902;DHT22;24661;53.566;9.910;2023-04-03T15:45:46;12.50;95.60
38902;DHT22;24661;53.566;9.910;2023-04-03T15:48:12;13.20;95.70
38902;DHT22;24661;53.566;9.910;2023-04-03T15:50:39;13.10;92.40
38902;DHT22;24661;53.566;9.910;2023-04-03T15:53:05;13.80;93.50
38902;DHT22;24661;53.566;9.910;2023-04-03T15:55:33;13.20;94.40
38902;DHT22;24661;53.566;9.910;2023-04-03T15:58:00;11.50;94.30
38902;DHT22;24661;53.566;9.910;2023-04-03T16:00:27;10.70;95.50
38902;DHT22;24661;53.566;9.910;2023-04-03T16:02:59;11.40;96.50
38902;DHT22;24661;53.566;9.910;2023-04-03T16:05:26;10.50;96.60
38902;DHT22;24661;53.566;9.910;2023-04-03T16:07:52;12.00;94.90
38902;DHT22;24661;53.566;9.910;2023-04-03T16:10:19;13.00;94.60
38902;DHT22;24661;53.566;9.910;2023-04-03T16:12:45;13.00;93.20
38902;DHT22;24661;53.566;9.910;2023-04-03T16:15:12;12.60;93.90
38902;DHT22;24661;53.566;9.910;2023-04-03T16:17:38;12.20;93.60
38902;DHT22;24661;53.566;9.910;2023-04-03T16:20:06;11.30;95.60
38902;DHT22;24661;53.566;9.910;2023-04-03T16:22:32;10.60;96.20
38902;DHT22;24661;53.566;9.910;2023-04-03T16:24:58;10.20;96.70
38902;DHT22;24661;53.566;9.910;2023-04-03T16:27:24;9.90;95.90
38902;DHT22;24661;53.566;9.910;2023-04-03T16:29:54;9.40;97.10
38902;DHT22;24661;53.566;9.910;2023-04-03T16:32:21;8.90;97.80
38902;DHT22;24661;53.566;9.910;2023-04-03T16:34:47;8.80;98.50
38902;DHT22;24661;53.566;9.910;2023-04-03T16:37:13;8.60;98.60
38902;DHT22;24661;53.566;9.910;2023-04-03T16:39:40;8.40;98.80
38902;DHT22;24661;53.566;9.910;2023-04-03T16:42:06;8.30;99.40
38902;DHT22;24661;53.566;9.910;2023-04-03T16:44:31;7.90;98.70
38902;DHT22;24661;53.566;9.910;2023-04-03T16:46:57;7.70;99.90
38902;DHT22;24661;53.566;9.910;2023-04-03T16:49:24;7.70;99.90
38902;DHT22;24661;53.566;9.910;2023-04-03T16:51:49;7.30;99.90
38902;DHT22;24661;53.566;9.910;2023-04-03T16:54:15;7.20;99.90
38902;DHT22;24661;53.566;9.910;2023-04-03T16:56:41;7.20;99.90
38902;DHT22;24661;53.566;9.910;2023-04-03T16:59:07;7.10;99.90
38902;DHT22;24661;53.566;9.910;2023-04-03T17:01:33;7.10;99.90
38902;DHT22;24661;53.566;9.910;2023-04-03T17:03:58;7.00;99.90
38902;DHT22;24661;53.566;9.910;2023-04-03T17:06:24;7.00;99.90
38902;DHT22;24661;53.566;9.910;2023-04-03T17:08:51;6.90;99.90
38902;DHT22;24661;53.566;9.910;2023-04-03T17:11:18;6.80;99.90
38902;DHT22;24661;53.566;9.910;2023-04-03T17:13:44;6.90;99.90
38902;DHT22;24661;53.566;9.910;2023-04-03T17:16:13;6.70;99.90
38902;DHT22;24661;53.566;9.910;2023-04-03T17:18:39;6.70;99.90
38902;DHT22;24661;53.566;9.910;2023-04-03T17:21:06;6.40;99.90
38902;DHT22;24661;53.566;9.910;2023-04-03T17:23:33;6.40;99.90
38902;DHT22;24661;53.566;9.910;2023-04-03T17:26:01;6.30;99.90
38902;DHT22;24661;53.566;9.910;2023-04-03T17:28:27;6.10;99.90
38902;DHT22;24661;53.566;9.910;2023-04-03T17:30:58;6.20;99.90
38902;DHT22;24661;53.566;9.910;2023-04-03T17:33:25;6.20;99.90
38902;DHT22;24661;53.566;9.910;2023-04-03T17:35:51;6.10;99.90
38902;DHT22;24661;53.566;9.910;2023-04-03T17:38:17;6.10;99.90
38902;DHT22;24661;53.566;9.910;2023-04-03T17:40:43;7.80;99.90
38902;DHT22;24661;53.566;9.910;2023-04-03T17:43:10;6.10;99.90
38902;DHT22;24661;53.566;9.910;2023-04-03T17:45:36;6.00;99.90